Terminal Aerodrome Forecast
Issued by NWS Twin Cities, MN

Home | Current Version | Previous Version | Graphics & Text | Print | Product List | Glossary On
Versions: 1 2 3 4 5 6 7 8 9 10 11 12 13 14
536
FTUS43 KMPX 211720
TAFEAU
TAF
KEAU 211720Z 2118/2218 31008KT P6SM FEW030 SCT100
     FM220000 26005KT P6SM SCT100 SCT250
     FM220400 21004KT P6SM SCT250
     FM221600 19012G19KT P6SM SKC=

USA.gov is the U.S. government's official web portal to all federal, state and local government web resources and services.